createdAt,value
2024-02-29T00:00:43.597Z,99027.22
2024-02-29T00:03:11.003Z,99036.00
2024-02-29T00:05:38.236Z,99031.06
2024-02-29T00:08:05.674Z,99032.38
2024-02-29T00:10:32.606Z,99036.41
2024-02-29T00:13:01.879Z,99037.16
2024-02-29T00:15:30.567Z,99030.09
2024-02-29T00:17:58.129Z,99027.88
2024-02-29T00:20:25.018Z,99023.34
2024-02-29T00:22:51.786Z,99021.25
2024-02-29T00:25:18.664Z,99023.91
2024-02-29T00:27:45.520Z,99009.03
2024-02-29T00:30:13.510Z,99023.00
2024-02-29T00:32:40.290Z,99012.13
2024-02-29T00:35:07.635Z,99020.19
2024-02-29T00:37:34.462Z,99017.75
2024-02-29T00:40:01.558Z,99013.34
2024-02-29T00:42:28.961Z,99013.59
2024-02-29T00:44:57.009Z,99013.34
2024-02-29T00:47:23.875Z,99004.19
2024-02-29T00:49:51.369Z,99011.66
2024-02-29T00:52:18.329Z,99009.94
2024-02-29T00:54:45.188Z,99003.03
2024-02-29T00:57:12.012Z,99003.31
2024-02-29T00:59:39.309Z,99001.75
2024-02-29T01:02:06.187Z,99002.75
2024-02-29T01:04:33.022Z,98993.56
2024-02-29T01:06:59.982Z,98997.38
2024-02-29T01:09:28.744Z,98994.84
2024-02-29T01:11:55.881Z,98990.63
2024-02-29T01:14:22.784Z,98987.03
2024-02-29T01:16:49.871Z,98997.13
2024-02-29T01:19:16.983Z,98987.56
2024-02-29T01:21:44.077Z,98992.00
2024-02-29T01:24:11.004Z,98988.78
2024-02-29T01:26:37.913Z,98984.94
2024-02-29T01:29:04.972Z,98983.03
2024-02-29T01:31:32.150Z,98987.06
2024-02-29T01:33:58.982Z,98977.75
2024-02-29T01:36:25.826Z,98977.47
2024-02-29T01:38:52.700Z,98964.50
2024-02-29T01:41:19.858Z,98963.19
2024-02-29T01:43:56.585Z,98962.31
2024-02-29T01:46:24.657Z,98957.59
2024-02-29T01:48:52.417Z,98959.00
2024-02-29T01:51:20.882Z,98957.03
2024-02-29T01:53:47.750Z,98951.84
2024-02-29T01:56:14.921Z,98946.91
2024-02-29T01:58:42.975Z,98950.56
2024-02-29T02:01:10.250Z,98948.19
2024-02-29T02:03:39.252Z,98950.69
2024-02-29T02:06:06.266Z,98953.28
2024-02-29T02:08:33.597Z,98953.53
2024-02-29T02:11:01.432Z,98941.28
2024-02-29T02:13:28.608Z,98939.00
2024-02-29T02:15:55.724Z,98935.50
2024-02-29T02:18:23.319Z,98937.06
2024-02-29T02:20:50.842Z,98934.38
2024-02-29T02:23:17.786Z,98939.16
2024-02-29T02:25:44.599Z,98928.78
2024-02-29T02:28:13.092Z,98929.28
2024-02-29T02:30:41.078Z,98932.19
2024-02-29T02:33:08.760Z,98932.34
2024-02-29T02:35:35.619Z,98937.28
2024-02-29T02:38:08.596Z,98928.28
2024-02-29T02:40:38.181Z,98929.19
2024-02-29T02:43:05.336Z,98927.56
2024-02-29T02:45:32.733Z,98925.13
2024-02-29T02:47:59.682Z,98925.13
2024-02-29T02:50:26.890Z,98921.31
2024-02-29T02:52:53.759Z,98915.88
2024-02-29T02:55:20.713Z,98920.16
2024-02-29T02:57:47.578Z,98923.25
2024-02-29T03:00:14.565Z,98910.44
2024-02-29T03:02:41.564Z,98908.72
2024-02-29T03:05:10.311Z,98899.31
2024-02-29T03:07:39.569Z,98895.69
2024-02-29T03:10:10.315Z,98895.44
2024-02-29T03:12:39.152Z,98893.22
2024-02-29T03:15:07.372Z,98881.56
2024-02-29T03:17:34.361Z,98886.09
2024-02-29T03:20:01.654Z,98887.66
2024-02-29T03:22:28.504Z,98888.78
2024-02-29T03:24:57.073Z,98885.78
2024-02-29T03:27:24.059Z,98876.94
2024-02-29T03:29:51.477Z,98879.28
2024-02-29T03:32:24.802Z,98885.59
2024-02-29T03:34:51.766Z,98894.47
2024-02-29T03:37:19.586Z,98892.28
2024-02-29T03:39:47.175Z,98881.47
2024-02-29T03:42:13.999Z,98878.06
2024-02-29T03:44:45.105Z,98871.91
2024-02-29T03:47:12.049Z,98864.03
2024-02-29T03:49:38.865Z,98865.41
2024-02-29T03:52:06.034Z,98869.38
2024-02-29T03:54:32.937Z,98859.31
2024-02-29T03:56:59.733Z,98870.03
2024-02-29T03:59:26.839Z,98867.03
2024-02-29T04:01:53.876Z,98868.31
2024-02-29T04:04:21.146Z,98871.81
2024-02-29T04:06:48.156Z,98874.25
2024-02-29T04:09:15.238Z,98860.78
2024-02-29T04:11:42.274Z,98866.13
2024-02-29T04:14:10.539Z,98862.81
2024-02-29T04:16:38.422Z,98860.44
2024-02-29T04:19:06.788Z,98857.38
2024-02-29T04:21:34.352Z,98868.19
2024-02-29T04:24:02.383Z,98860.34
2024-02-29T04:26:30.089Z,98846.81
2024-02-29T04:28:56.944Z,98844.22
2024-02-29T04:31:23.928Z,98845.94
2024-02-29T04:33:52.215Z,98846.66
2024-02-29T04:36:19.317Z,98841.88
2024-02-29T04:38:46.195Z,98844.56
2024-02-29T04:41:13.210Z,98832.94
2024-02-29T04:43:40.051Z,98838.06
2024-02-29T04:46:07.636Z,98834.13
2024-02-29T04:48:34.491Z,98837.25
2024-02-29T04:51:01.534Z,98837.31
2024-02-29T04:53:28.959Z,98828.63
2024-02-29T04:55:55.890Z,98831.06
2024-02-29T04:58:23.118Z,98828.16
2024-02-29T05:00:49.985Z,98836.75
2024-02-29T05:03:16.851Z,98826.72
2024-02-29T05:05:43.950Z,98826.78
2024-02-29T05:08:10.868Z,98818.19
2024-02-29T05:10:37.754Z,98822.50
2024-02-29T05:13:05.277Z,98825.25
2024-02-29T05:15:33.024Z,98822.66
2024-02-29T05:18:00.947Z,98814.72
2024-02-29T05:20:29.671Z,98814.63
2024-02-29T05:22:56.585Z,98803.28
2024-02-29T05:25:23.646Z,98803.38
2024-02-29T05:27:50.859Z,98800.78
2024-02-29T05:30:18.223Z,98800.94
2024-02-29T05:32:45.217Z,98805.97
2024-02-29T05:35:12.149Z,98808.00
2024-02-29T05:37:38.941Z,98809.28
2024-02-29T05:40:07.096Z,98803.38
2024-02-29T05:42:34.812Z,98796.66
2024-02-29T05:45:01.963Z,98798.50
2024-02-29T05:47:29.621Z,98803.03
2024-02-29T05:49:56.572Z,98807.50
2024-02-29T05:52:23.450Z,98800.75
2024-02-29T05:54:50.550Z,98794.44
2024-02-29T05:57:17.541Z,98794.91
2024-02-29T05:59:44.416Z,98784.22
2024-02-29T06:02:11.478Z,98781.47
2024-02-29T06:04:38.586Z,98774.34
2024-02-29T06:07:05.472Z,98781.25
2024-02-29T06:09:32.387Z,98775.06
2024-02-29T06:11:59.207Z,98778.72
2024-02-29T06:14:26.024Z,98779.06
2024-02-29T06:16:52.838Z,98776.69
2024-02-29T06:19:19.780Z,98771.59
2024-02-29T06:21:46.956Z,98767.38
2024-02-29T06:24:19.502Z,98761.88
2024-02-29T06:26:49.741Z,98775.63
2024-02-29T06:29:16.626Z,98753.66
2024-02-29T06:31:43.543Z,98759.50
2024-02-29T06:34:10.589Z,98754.41
2024-02-29T06:36:37.531Z,98754.91
2024-02-29T06:39:08.977Z,98741.59
2024-02-29T06:41:37.510Z,98739.50
2024-02-29T06:44:06.515Z,98734.94
2024-02-29T06:46:34.079Z,98737.47
2024-02-29T06:49:02.919Z,98740.63
2024-02-29T06:51:30.950Z,98737.03
2024-02-29T06:53:57.787Z,98731.53
2024-02-29T06:56:24.711Z,98730.22
2024-02-29T06:58:51.687Z,98732.59
2024-02-29T07:01:21.391Z,98735.28
2024-02-29T07:03:48.795Z,98738.03
2024-02-29T07:06:15.808Z,98727.47
2024-02-29T07:08:42.832Z,98740.69
2024-02-29T07:11:12.957Z,98737.28
2024-02-29T07:13:40.501Z,98733.63
2024-02-29T07:16:07.507Z,98740.59
2024-02-29T07:18:38.058Z,98736.78
2024-02-29T07:21:05.648Z,98741.16
2024-02-29T07:23:33.294Z,98729.94
2024-02-29T07:26:04.240Z,98731.72
2024-02-29T07:28:32.240Z,98733.53
2024-02-29T07:30:59.206Z,98733.91
2024-02-29T07:33:26.334Z,98739.91
2024-02-29T07:35:53.905Z,98735.66
2024-02-29T07:38:20.735Z,98730.56
2024-02-29T07:40:47.603Z,98744.69
2024-02-29T07:43:14.587Z,98730.56
2024-02-29T07:45:42.067Z,98735.72
2024-02-29T07:48:09.023Z,98731.81
2024-02-29T07:50:35.940Z,98727.75
2024-02-29T07:53:02.733Z,98731.03
2024-02-29T07:55:29.620Z,98728.19
2024-02-29T07:57:57.336Z,98732.03
2024-02-29T08:00:25.292Z,98732.13
2024-02-29T08:02:52.790Z,98732.97
2024-02-29T08:05:19.712Z,98727.47
2024-02-29T08:07:48.346Z,98726.88
2024-02-29T08:10:19.274Z,98725.06
2024-02-29T08:12:46.452Z,98722.22
2024-02-29T08:15:14.460Z,98720.72
2024-02-29T08:17:41.637Z,98720.50
2024-02-29T08:20:09.249Z,98716.56
2024-02-29T08:22:40.595Z,98714.78
2024-02-29T08:25:09.676Z,98710.56
2024-02-29T08:27:36.855Z,98702.78
2024-02-29T08:30:04.405Z,98707.97
2024-02-29T08:32:31.324Z,98704.78
2024-02-29T08:34:58.294Z,98706.97
2024-02-29T08:37:25.215Z,98711.34
2024-02-29T08:39:52.335Z,98696.84
2024-02-29T08:42:19.150Z,98700.88
2024-02-29T08:44:48.124Z,98693.88
2024-02-29T08:47:14.916Z,98693.59
2024-02-29T08:49:41.713Z,98687.38
2024-02-29T08:52:09.339Z,98682.22
2024-02-29T08:54:37.559Z,98688.34
2024-02-29T08:57:05.512Z,98684.78
2024-02-29T08:59:34.231Z,98685.25
2024-02-29T09:02:04.021Z,98692.19
2024-02-29T09:04:31.013Z,98685.19
2024-02-29T09:06:58.103Z,98680.16
2024-02-29T09:09:25.510Z,98670.81
2024-02-29T09:11:52.502Z,98671.25
2024-02-29T09:14:20.229Z,98671.44
2024-02-29T09:16:47.618Z,98661.03
2024-02-29T09:19:14.548Z,98659.66
2024-02-29T09:21:41.507Z,98655.16
2024-02-29T09:24:08.440Z,98647.31
2024-02-29T09:26:36.612Z,98647.84
2024-02-29T09:29:04.068Z,98650.75
2024-02-29T09:31:30.966Z,98644.63
2024-02-29T09:33:58.040Z,98637.66
2024-02-29T09:36:25.857Z,98638.19
2024-02-29T09:38:52.709Z,98635.44
2024-02-29T09:43:52.380Z,98635.88
2024-02-29T09:46:19.810Z,98627.50
2024-02-29T09:48:48.998Z,98624.66
2024-02-29T09:51:21.429Z,98618.22
2024-02-29T09:53:54.381Z,98625.47
2024-02-29T09:56:26.692Z,98621.25
2024-02-29T09:58:54.547Z,98615.56
2024-02-29T10:01:21.767Z,98611.97
2024-02-29T10:03:49.539Z,98601.63
2024-02-29T10:06:16.623Z,98599.63
2024-02-29T10:08:43.662Z,98597.72
2024-02-29T10:11:10.862Z,98588.81
2024-02-29T10:13:42.737Z,98583.03
2024-02-29T10:16:14.034Z,98581.38
2024-02-29T10:18:40.942Z,98572.03
2024-02-29T10:21:12.810Z,98564.28
2024-02-29T10:23:44.245Z,98557.25
2024-02-29T10:26:11.549Z,98553.88
2024-02-29T10:28:38.452Z,98558.72
2024-02-29T10:31:05.777Z,98548.06
2024-02-29T10:33:34.367Z,98547.91
2024-02-29T10:36:14.418Z,98547.44
2024-02-29T10:38:41.640Z,98541.00
2024-02-29T10:41:11.605Z,98541.53
2024-02-29T10:43:41.284Z,98536.16
2024-02-29T10:46:09.981Z,98529.25
2024-02-29T10:48:56.320Z,98533.41
2024-02-29T10:51:58.242Z,98528.13
2024-02-29T10:54:50.048Z,98527.31
2024-02-29T10:57:25.984Z,98522.81
2024-02-29T11:00:06.462Z,98514.94
2024-02-29T11:02:33.602Z,98507.53
2024-02-29T11:05:00.790Z,98497.69
2024-02-29T11:07:29.876Z,98500.94
2024-02-29T11:09:57.800Z,98494.41
2024-02-29T11:12:32.122Z,98486.56
2024-02-29T11:15:00.613Z,98484.72
2024-02-29T11:17:34.424Z,98488.19
2024-02-29T11:20:08.225Z,98477.69
2024-02-29T11:22:40.857Z,98479.88
2024-02-29T11:25:14.255Z,98476.38
2024-02-29T11:27:51.971Z,98470.09
2024-02-29T11:30:25.006Z,98470.84
2024-02-29T11:32:52.532Z,98467.13
2024-02-29T11:35:19.885Z,98455.31
2024-02-29T11:37:47.967Z,98454.41
2024-02-29T11:40:19.535Z,98446.25
2024-02-29T11:42:46.869Z,98435.00
2024-02-29T11:45:24.307Z,98433.44
2024-02-29T11:47:52.015Z,98427.44
2024-02-29T11:50:19.231Z,98428.91
2024-02-29T11:52:46.272Z,98415.34
2024-02-29T11:55:14.828Z,98417.09
2024-02-29T11:57:43.317Z,98408.22
2024-02-29T12:00:11.064Z,98407.44
2024-02-29T12:02:40.006Z,98391.63
2024-02-29T12:05:07.636Z,98385.97
2024-02-29T12:10:34.977Z,98388.44
2024-02-29T12:13:02.301Z,98387.66
2024-02-29T12:15:29.830Z,98382.00
2024-02-29T12:17:59.348Z,98380.66
2024-02-29T12:20:26.791Z,98379.97
2024-02-29T12:23:00.912Z,98364.81
2024-02-29T12:25:28.368Z,98362.53
2024-02-29T12:27:55.892Z,98356.16
2024-02-29T12:30:22.755Z,98356.63
2024-02-29T12:32:50.103Z,98345.31
2024-02-29T12:35:19.225Z,98347.53
2024-02-29T12:37:46.861Z,98337.41
2024-02-29T12:40:17.216Z,98327.88
2024-02-29T12:42:44.281Z,98331.13
2024-02-29T12:45:12.222Z,98323.78
2024-02-29T12:47:40.444Z,98319.91
2024-02-29T12:50:11.150Z,98308.81
2024-02-29T12:52:38.003Z,98306.63
2024-02-29T12:55:05.398Z,98299.38
2024-02-29T12:57:32.412Z,98301.69
2024-02-29T12:59:59.282Z,98291.88
2024-02-29T13:02:26.230Z,98288.22
2024-02-29T13:04:53.068Z,98276.16
2024-02-29T13:07:20.085Z,98281.19
2024-02-29T13:09:47.141Z,98276.22
2024-02-29T13:12:14.166Z,98266.94
2024-02-29T13:14:41.146Z,98249.19
2024-02-29T13:17:08.809Z,98250.53
2024-02-29T13:19:35.766Z,98243.94
2024-02-29T13:22:03.356Z,98243.25
2024-02-29T13:24:31.030Z,98245.31
2024-02-29T13:26:58.099Z,98231.81
2024-02-29T13:29:25.281Z,98230.63
2024-02-29T13:31:52.117Z,98225.00
2024-02-29T13:34:18.996Z,98217.75
2024-02-29T13:36:46.714Z,98210.09
2024-02-29T13:39:13.625Z,98205.75
2024-02-29T13:41:40.684Z,98202.53
2024-02-29T13:44:07.581Z,98198.13
2024-02-29T13:46:34.876Z,98196.31
2024-02-29T13:49:20.511Z,98185.44
2024-02-29T13:51:48.966Z,98182.34
2024-02-29T13:54:15.975Z,98181.16
2024-02-29T13:56:42.845Z,98170.66
2024-02-29T13:59:09.907Z,98167.56
2024-02-29T14:01:36.822Z,98156.78
2024-02-29T14:04:03.972Z,98158.81
2024-02-29T14:06:31.899Z,98150.81
2024-02-29T14:08:59.051Z,98147.81
2024-02-29T14:11:25.878Z,98152.00
2024-02-29T14:13:53.410Z,98148.72
2024-02-29T14:16:20.507Z,98139.06
2024-02-29T14:18:47.854Z,98138.81
2024-02-29T14:21:17.456Z,98140.63
2024-02-29T14:23:44.276Z,98131.09
2024-02-29T14:26:11.848Z,98129.38
2024-02-29T14:28:38.719Z,98118.00
2024-02-29T14:31:07.280Z,98120.66
2024-02-29T14:33:35.423Z,98110.97
2024-02-29T14:36:02.390Z,98107.22
2024-02-29T14:38:29.403Z,98110.97
2024-02-29T14:40:56.287Z,98104.97
2024-02-29T14:43:23.338Z,98093.00
2024-02-29T14:45:50.728Z,98080.72
2024-02-29T14:48:17.690Z,98078.78
2024-02-29T14:50:44.586Z,98070.16
2024-02-29T14:53:11.460Z,98073.00
2024-02-29T14:55:38.270Z,98067.28
2024-02-29T14:58:06.200Z,98060.47
2024-02-29T15:00:33.093Z,98054.34
2024-02-29T15:02:59.902Z,98054.56
2024-02-29T15:05:26.746Z,98041.94
2024-02-29T15:07:53.858Z,98046.72
2024-02-29T15:10:21.174Z,98046.25
2024-02-29T15:12:48.257Z,98047.28
2024-02-29T15:15:16.674Z,98041.56
2024-02-29T15:17:43.913Z,98033.47
2024-02-29T15:20:11.606Z,98028.25
2024-02-29T15:22:38.897Z,98030.88
2024-02-29T15:25:15.351Z,98018.25
2024-02-29T15:27:54.215Z,98027.47
2024-02-29T15:32:48.511Z,98022.53
2024-02-29T15:35:15.620Z,98006.28
2024-02-29T15:37:42.686Z,98000.94
2024-02-29T15:40:11.707Z,97992.97
2024-02-29T15:42:38.640Z,97985.03
2024-02-29T15:45:06.072Z,97987.28
2024-02-29T15:47:33.163Z,97984.56
2024-02-29T15:50:00.039Z,97976.16
2024-02-29T15:52:26.953Z,97971.38
2024-02-29T15:54:53.861Z,97973.63
2024-02-29T15:57:20.819Z,97964.19
2024-02-29T15:59:47.707Z,97962.97
2024-02-29T16:02:14.594Z,97972.09
2024-02-29T16:04:41.916Z,97959.84
2024-02-29T16:07:08.907Z,97955.38
2024-02-29T16:09:35.912Z,97953.34
2024-02-29T16:12:07.101Z,97946.72
2024-02-29T16:14:33.954Z,97955.06
2024-02-29T16:17:03.366Z,97944.06
2024-02-29T16:19:30.993Z,97953.81
2024-02-29T16:21:58.595Z,97941.56
2024-02-29T16:24:25.915Z,97942.88
2024-02-29T16:26:55.892Z,97943.75
2024-02-29T16:29:22.672Z,97947.63
2024-02-29T16:31:49.809Z,97941.22
2024-02-29T16:34:16.661Z,97941.06
2024-02-29T16:36:45.346Z,97943.78
2024-02-29T16:39:13.612Z,97947.63
2024-02-29T16:41:40.519Z,97949.56
2024-02-29T16:44:07.886Z,97951.41
2024-02-29T16:46:35.253Z,97936.13
2024-02-29T16:49:02.830Z,97936.19
2024-02-29T16:51:29.791Z,97946.78
2024-02-29T16:53:56.791Z,97934.69
2024-02-29T16:56:25.788Z,97932.63
2024-02-29T16:58:53.391Z,97936.28
2024-02-29T17:01:20.669Z,97935.81
2024-02-29T17:03:51.176Z,97929.47
2024-02-29T17:06:18.953Z,97931.25
2024-02-29T17:08:45.906Z,97929.03
2024-02-29T17:11:15.424Z,97922.38
2024-02-29T17:13:42.320Z,97925.75
2024-02-29T17:16:09.246Z,97932.16
2024-02-29T17:18:36.091Z,97928.00
2024-02-29T17:21:02.950Z,97924.34
2024-02-29T17:23:30.021Z,97927.22
2024-02-29T17:25:56.870Z,97926.25
2024-02-29T17:28:23.987Z,97924.50
2024-02-29T17:30:50.867Z,97921.97
2024-02-29T17:33:17.963Z,97934.56
2024-02-29T17:35:45.503Z,97929.59
2024-02-29T17:38:12.389Z,97925.44
2024-02-29T17:40:39.258Z,97920.47
2024-02-29T17:43:06.072Z,97926.03
2024-02-29T17:45:32.907Z,97924.91
2024-02-29T17:47:59.738Z,97926.66
2024-02-29T17:50:27.206Z,97919.16
2024-02-29T17:52:54.558Z,97913.75
2024-02-29T17:55:21.587Z,97909.28
2024-02-29T17:57:48.633Z,97914.03
2024-02-29T18:00:16.444Z,97905.78
2024-02-29T18:02:43.941Z,97906.41
2024-02-29T18:05:12.568Z,97911.59
2024-02-29T18:07:47.050Z,97900.50
2024-02-29T18:10:19.052Z,97907.16
2024-02-29T18:12:46.040Z,97897.09
2024-02-29T18:15:15.957Z,97891.34
2024-02-29T18:17:47.113Z,97887.53
2024-02-29T18:20:20.666Z,97883.44
2024-02-29T18:22:47.478Z,97892.66
2024-02-29T18:25:18.743Z,97877.88
2024-02-29T18:27:45.852Z,97885.94
2024-02-29T18:30:13.677Z,97878.63
2024-02-29T18:32:40.699Z,97874.41
2024-02-29T18:35:10.508Z,97878.50
2024-02-29T18:37:38.636Z,97876.88
2024-02-29T18:40:07.081Z,97870.19
2024-02-29T18:42:33.980Z,97871.25
2024-02-29T18:45:02.155Z,97868.47
2024-02-29T18:47:29.364Z,97870.56
2024-02-29T18:49:56.412Z,97877.56
2024-02-29T18:52:23.545Z,97868.06
2024-02-29T18:54:50.496Z,97866.00
2024-02-29T18:57:17.478Z,97870.94
2024-02-29T18:59:44.309Z,97865.22
2024-02-29T19:02:11.556Z,97869.66
2024-02-29T19:04:38.867Z,97868.81
2024-02-29T19:07:06.029Z,97864.63
2024-02-29T19:09:33.017Z,97865.72
2024-02-29T19:11:59.909Z,97856.81
2024-02-29T19:14:27.135Z,97863.16
2024-02-29T19:16:54.032Z,97859.13
2024-02-29T19:19:21.039Z,97863.97
2024-02-29T19:21:49.231Z,97855.44
2024-02-29T19:24:16.221Z,97855.91
2024-02-29T19:26:44.586Z,97851.91
2024-02-29T19:29:12.267Z,97847.31
2024-02-29T19:31:39.444Z,97848.13
2024-02-29T19:34:06.347Z,97845.13
2024-02-29T19:36:33.353Z,97841.94
2024-02-29T19:39:00.556Z,97848.13
2024-02-29T19:41:27.893Z,97845.81
2024-02-29T19:43:55.102Z,97844.41
2024-02-29T19:46:22.355Z,97841.94
2024-02-29T19:48:49.399Z,97827.13
2024-02-29T19:51:16.398Z,97829.56
2024-02-29T19:53:45.069Z,97830.72
2024-02-29T19:56:12.173Z,97835.03
2024-02-29T19:58:39.648Z,97835.84
2024-02-29T20:01:07.474Z,97833.66
2024-02-29T20:03:34.441Z,97819.78
2024-02-29T20:06:01.323Z,97819.28
2024-02-29T20:08:28.261Z,97817.84
2024-02-29T20:10:55.252Z,97820.97
2024-02-29T20:13:22.442Z,97817.78
2024-02-29T20:15:50.657Z,97819.47
2024-02-29T20:18:19.007Z,97824.44
2024-02-29T20:20:46.037Z,97817.47
2024-02-29T20:23:13.251Z,97817.06
2024-02-29T20:25:44.446Z,97817.72
2024-02-29T20:28:11.652Z,97825.81
2024-02-29T20:30:39.168Z,97830.19
2024-02-29T20:33:07.352Z,97824.78
2024-02-29T20:35:34.193Z,97818.41
2024-02-29T20:38:01.133Z,97821.50
2024-02-29T20:40:28.033Z,97824.97
2024-02-29T20:42:56.192Z,97829.00
2024-02-29T20:45:23.114Z,97841.72
2024-02-29T20:47:50.041Z,97836.44
2024-02-29T20:50:16.978Z,97838.94
2024-02-29T20:52:44.015Z,97832.53
2024-02-29T20:55:11.062Z,97832.22
2024-02-29T20:57:38.089Z,97849.47
2024-02-29T21:00:10.480Z,97840.38
2024-02-29T21:02:38.091Z,97842.06
2024-02-29T21:05:05.681Z,97833.72
2024-02-29T21:07:33.764Z,97827.50
2024-02-29T21:10:01.898Z,97827.09
2024-02-29T21:12:28.871Z,97828.34
2024-02-29T21:14:55.915Z,97827.09
2024-02-29T21:17:22.875Z,97824.41
2024-02-29T21:19:49.881Z,97819.09
2024-02-29T21:22:16.820Z,97824.38
2024-02-29T21:24:44.161Z,97813.06
2024-02-29T21:27:11.312Z,97815.22
2024-02-29T21:29:40.420Z,97812.47
2024-02-29T21:32:08.939Z,97813.19
2024-02-29T21:34:35.982Z,97816.25
2024-02-29T21:37:04.171Z,97816.19
2024-02-29T21:39:36.807Z,97802.22
2024-02-29T21:42:10.862Z,97803.94
2024-02-29T21:44:38.144Z,97811.91
2024-02-29T21:47:05.164Z,97820.25
2024-02-29T21:49:32.016Z,97814.00
2024-02-29T21:51:58.945Z,97815.25
2024-02-29T21:54:26.267Z,97812.13
2024-02-29T21:56:53.461Z,97805.50
2024-02-29T21:59:20.624Z,97808.81
2024-02-29T22:01:48.931Z,97813.09
2024-02-29T22:04:17.061Z,97804.53
2024-02-29T22:06:44.196Z,97811.66
2024-02-29T22:09:11.817Z,97805.00
2024-02-29T22:11:38.774Z,97798.88
2024-02-29T22:14:06.218Z,97798.59
2024-02-29T22:16:33.980Z,97802.44
2024-02-29T22:19:02.017Z,97799.19
2024-02-29T22:21:30.310Z,97799.53
2024-02-29T22:24:00.375Z,97805.00
2024-02-29T22:26:27.197Z,97797.03
2024-02-29T22:28:54.075Z,97792.13
2024-02-29T22:31:21.067Z,97794.25
2024-02-29T22:33:48.023Z,97785.94
2024-02-29T22:36:15.038Z,97786.31
2024-02-29T22:38:41.846Z,97780.34
2024-02-29T22:41:08.988Z,97789.16
2024-02-29T22:43:40.137Z,97781.94
2024-02-29T22:46:07.206Z,97786.53
2024-02-29T22:48:34.074Z,97783.91
2024-02-29T22:51:01.246Z,97774.53
2024-02-29T22:53:28.623Z,97789.66
2024-02-29T22:55:56.733Z,97783.03
2024-02-29T22:58:23.831Z,97785.22
2024-02-29T23:00:54.398Z,97786.25
2024-02-29T23:03:22.445Z,97779.25
2024-02-29T23:05:50.148Z,97786.06
2024-02-29T23:08:17.343Z,97777.88
2024-02-29T23:10:44.370Z,97776.13
2024-02-29T23:13:11.660Z,97772.69
2024-02-29T23:15:39.186Z,97781.59
2024-02-29T23:18:06.436Z,97778.81
2024-02-29T23:20:33.380Z,97777.66
2024-02-29T23:23:01.407Z,97780.13
2024-02-29T23:25:28.835Z,97775.81
2024-02-29T23:27:55.863Z,97780.25
2024-02-29T23:30:23.150Z,97770.66
2024-02-29T23:32:50.203Z,97769.66
2024-02-29T23:35:17.289Z,97774.53
2024-02-29T23:37:44.152Z,97770.31
2024-02-29T23:40:11.948Z,97763.63
2024-02-29T23:42:38.860Z,97765.44
2024-02-29T23:45:06.468Z,97767.78
2024-02-29T23:47:33.459Z,97762.97
2024-02-29T23:50:01.510Z,97770.38
2024-02-29T23:52:28.384Z,97765.41
2024-02-29T23:54:55.303Z,97761.28
2024-02-29T23:57:22.957Z,97761.28
2024-02-29T23:59:49.836Z,97762.63
